createdAt,value
2023-05-19T00:00:12.393Z,15.48
2023-05-19T00:01:12.422Z,15.43
2023-05-19T00:02:12.564Z,15.46
2023-05-19T00:03:12.614Z,15.48
2023-05-19T00:04:12.571Z,15.50
2023-05-19T00:05:12.613Z,15.50
2023-05-19T00:06:12.688Z,15.53
2023-05-19T00:07:12.669Z,15.50
2023-05-19T00:08:12.671Z,15.52
2023-05-19T00:09:12.748Z,15.41
2023-05-19T00:10:12.707Z,15.42
2023-05-19T00:11:12.749Z,15.43
2023-05-19T00:12:12.763Z,15.46
2023-05-19T00:13:12.781Z,15.49
2023-05-19T00:14:12.821Z,15.43
2023-05-19T00:15:12.806Z,15.46
2023-05-19T00:16:12.888Z,15.45
2023-05-19T00:17:12.900Z,15.43
2023-05-19T00:18:12.923Z,15.34
2023-05-19T00:19:12.949Z,15.29
2023-05-19T00:20:12.956Z,15.29
2023-05-19T00:21:12.976Z,15.14
2023-05-19T00:22:13.073Z,15.20
2023-05-19T00:23:13.143Z,15.18
2023-05-19T00:24:13.171Z,15.24
2023-05-19T00:25:13.191Z,15.22
2023-05-19T00:26:13.240Z,15.15
2023-05-19T00:27:13.332Z,15.07
2023-05-19T00:28:13.300Z,15.12
2023-05-19T00:29:13.402Z,15.17
2023-05-19T00:30:13.359Z,15.18
2023-05-19T00:31:13.419Z,14.94
2023-05-19T00:32:13.518Z,15.02
2023-05-19T00:33:13.426Z,15.00
2023-05-19T00:34:13.420Z,15.05
2023-05-19T00:35:13.484Z,15.08
2023-05-19T00:36:13.486Z,15.04
2023-05-19T00:37:13.495Z,15.07
2023-05-19T00:38:13.493Z,15.11
2023-05-19T00:39:13.511Z,15.10
2023-05-19T00:40:13.526Z,15.17
2023-05-19T00:41:13.511Z,15.17
2023-05-19T00:42:13.556Z,15.18
2023-05-19T00:43:13.587Z,15.22
2023-05-19T00:44:13.624Z,15.20
2023-05-19T00:45:13.691Z,15.08
2023-05-19T00:46:13.692Z,15.12
2023-05-19T00:47:13.670Z,15.15
2023-05-19T00:48:13.674Z,15.15
2023-05-19T00:49:13.673Z,15.17
2023-05-19T00:50:13.737Z,15.17
2023-05-19T00:51:13.775Z,15.17
2023-05-19T00:52:13.758Z,15.10
2023-05-19T00:53:13.792Z,15.05
2023-05-19T00:54:13.787Z,14.91
2023-05-19T00:55:13.815Z,15.00
2023-05-19T00:56:13.833Z,14.94
2023-05-19T00:57:13.864Z,14.97
2023-05-19T00:58:13.843Z,15.01
2023-05-19T00:59:13.876Z,15.04
2023-05-19T01:00:13.906Z,15.00
2023-05-19T01:01:13.970Z,14.95
2023-05-19T01:02:13.956Z,14.94
2023-05-19T01:03:14.118Z,14.98
2023-05-19T01:04:14.010Z,15.00
2023-05-19T01:05:14.058Z,14.97
2023-05-19T01:06:14.058Z,14.97
2023-05-19T01:07:14.108Z,14.97
2023-05-19T01:08:14.153Z,15.00
2023-05-19T01:09:14.102Z,14.94
2023-05-19T01:10:14.162Z,14.95
2023-05-19T01:11:14.156Z,14.95
2023-05-19T01:12:14.210Z,14.91
2023-05-19T01:13:14.299Z,14.94
2023-05-19T01:14:14.291Z,14.84
2023-05-19T01:15:14.294Z,14.80
2023-05-19T01:16:14.341Z,14.66
2023-05-19T01:17:14.306Z,14.67
2023-05-19T01:18:14.367Z,14.49
2023-05-19T01:19:14.375Z,14.60
2023-05-19T01:20:14.354Z,14.67
2023-05-19T01:21:14.358Z,14.63
2023-05-19T01:22:14.367Z,14.70
2023-05-19T01:23:14.368Z,14.77
2023-05-19T01:24:14.412Z,14.80
2023-05-19T01:25:14.393Z,14.80
2023-05-19T01:26:14.436Z,14.80
2023-05-19T01:27:14.420Z,14.76
2023-05-19T01:28:14.426Z,14.80
2023-05-19T01:29:14.437Z,14.83
2023-05-19T01:30:14.448Z,14.76
2023-05-19T01:31:14.454Z,14.70
2023-05-19T01:32:14.519Z,14.72
2023-05-19T01:33:14.588Z,14.74
2023-05-19T01:34:14.526Z,14.64
2023-05-19T01:35:14.512Z,14.60
2023-05-19T01:36:14.542Z,14.60
2023-05-19T01:37:14.538Z,14.55
2023-05-19T01:38:14.584Z,14.53
2023-05-19T01:39:14.572Z,14.56
2023-05-19T01:40:14.589Z,14.40
2023-05-19T01:41:14.570Z,14.47
2023-05-19T01:42:14.621Z,14.53
2023-05-19T01:43:14.612Z,14.52
2023-05-19T01:44:14.650Z,14.55
2023-05-19T01:45:14.647Z,14.56
2023-05-19T01:46:14.673Z,14.60
2023-05-19T01:47:14.699Z,14.63
2023-05-19T01:48:14.763Z,14.64
2023-05-19T01:49:14.716Z,14.67
2023-05-19T01:50:14.716Z,14.52
2023-05-19T01:51:14.733Z,14.49
2023-05-19T01:52:14.738Z,14.49
2023-05-19T01:53:14.750Z,14.46
2023-05-19T01:54:14.781Z,14.53
2023-05-19T01:55:14.791Z,14.56
2023-05-19T01:56:14.796Z,14.58
2023-05-19T01:57:14.816Z,14.59
2023-05-19T01:58:14.843Z,14.66
2023-05-19T01:59:14.840Z,14.70
2023-05-19T02:00:14.845Z,14.72
2023-05-19T02:01:14.910Z,14.76
2023-05-19T02:02:14.920Z,14.76
2023-05-19T02:03:14.943Z,14.79
2023-05-19T02:04:15.023Z,14.74
2023-05-19T02:05:15.019Z,14.77
2023-05-19T02:06:15.060Z,14.80
2023-05-19T02:07:15.081Z,14.72
2023-05-19T02:08:15.119Z,14.67
2023-05-19T02:09:15.186Z,14.69
2023-05-19T02:10:15.232Z,14.58
2023-05-19T02:11:15.253Z,14.59
2023-05-19T02:12:15.299Z,14.49
2023-05-19T02:13:15.305Z,14.46
2023-05-19T02:14:15.334Z,14.33
2023-05-19T02:15:15.394Z,14.36
2023-05-19T02:16:15.502Z,14.36
2023-05-19T02:17:15.496Z,14.40
2023-05-19T02:18:15.556Z,14.31
2023-05-19T02:19:15.628Z,14.28
2023-05-19T02:20:15.620Z,14.11
2023-05-19T02:21:15.658Z,14.17
2023-05-19T02:22:15.683Z,14.19
2023-05-19T02:23:15.702Z,14.18
2023-05-19T02:24:15.765Z,14.05
2023-05-19T02:25:15.798Z,14.17
2023-05-19T02:26:15.816Z,14.25
2023-05-19T02:27:15.842Z,14.25
2023-05-19T02:28:16.532Z,14.29
2023-05-19T02:29:15.891Z,14.28
2023-05-19T02:30:15.935Z,14.15
2023-05-19T02:31:15.923Z,14.22
2023-05-19T02:32:15.981Z,14.07
2023-05-19T02:33:15.981Z,14.02
2023-05-19T02:34:16.031Z,13.77
2023-05-19T02:35:16.050Z,13.67
2023-05-19T02:36:16.052Z,13.85
2023-05-19T02:37:16.083Z,13.87
2023-05-19T02:38:16.067Z,13.74
2023-05-19T02:39:16.078Z,13.61
2023-05-19T02:40:16.153Z,13.60
2023-05-19T02:41:16.113Z,13.71
2023-05-19T02:42:16.163Z,13.63
2023-05-19T02:43:16.171Z,13.70
2023-05-19T02:44:16.208Z,13.70
2023-05-19T02:45:16.237Z,13.66
2023-05-19T02:46:16.306Z,13.56
2023-05-19T02:47:16.303Z,13.66
2023-05-19T02:48:16.368Z,13.66
2023-05-19T02:49:16.371Z,13.61
2023-05-19T02:50:16.410Z,13.63
2023-05-19T02:51:16.495Z,13.61
2023-05-19T02:52:16.456Z,13.57
2023-05-19T02:53:16.453Z,13.61
2023-05-19T02:54:16.471Z,13.66
2023-05-19T02:55:16.510Z,13.61
2023-05-19T02:56:16.516Z,13.70
2023-05-19T02:57:16.557Z,13.64
2023-05-19T02:58:16.608Z,13.66
2023-05-19T02:59:16.608Z,13.76
2023-05-19T03:00:16.653Z,13.81
2023-05-19T03:01:16.788Z,13.88
2023-05-19T03:02:16.714Z,13.91
2023-05-19T03:03:16.804Z,13.96
2023-05-19T03:04:16.706Z,14.01
2023-05-19T03:05:16.769Z,14.04
2023-05-19T03:06:16.751Z,14.05
2023-05-19T03:07:16.772Z,14.02
2023-05-19T03:08:16.777Z,13.96
2023-05-19T03:09:16.810Z,13.87
2023-05-19T03:10:16.865Z,13.85
2023-05-19T03:11:16.839Z,13.87
2023-05-19T03:12:16.874Z,13.84
2023-05-19T03:13:17.000Z,13.87
2023-05-19T03:14:16.918Z,13.78
2023-05-19T03:15:16.951Z,13.74
2023-05-19T03:16:16.937Z,13.64
2023-05-19T03:17:17.018Z,13.70
2023-05-19T03:18:17.015Z,13.77
2023-05-19T03:19:17.044Z,13.71
2023-05-19T03:20:16.979Z,13.77
2023-05-19T03:21:17.031Z,13.81
2023-05-19T03:22:17.057Z,13.87
2023-05-19T03:23:17.077Z,13.92
2023-05-19T03:24:17.072Z,13.96
2023-05-19T03:25:17.102Z,14.00
2023-05-19T03:26:17.212Z,14.04
2023-05-19T03:27:17.147Z,14.05
2023-05-19T03:28:17.252Z,14.05
2023-05-19T03:29:17.207Z,14.08
2023-05-19T03:30:17.198Z,14.07
2023-05-19T03:31:17.244Z,13.98
2023-05-19T03:32:17.292Z,14.04
2023-05-19T03:33:17.310Z,14.07
2023-05-19T03:34:17.989Z,14.11
2023-05-19T03:35:17.271Z,14.14
2023-05-19T03:36:17.317Z,14.14
2023-05-19T03:37:17.324Z,14.14
2023-05-19T03:38:17.372Z,14.15
2023-05-19T03:39:17.447Z,14.12
2023-05-19T03:40:17.444Z,14.15
2023-05-19T03:41:17.448Z,14.14
2023-05-19T03:42:17.506Z,14.15
2023-05-19T03:43:17.520Z,14.14
2023-05-19T03:44:17.531Z,14.15
2023-05-19T03:45:17.572Z,14.15
2023-05-19T03:46:17.694Z,14.17
2023-05-19T03:47:17.664Z,14.21
2023-05-19T03:48:20.367Z,14.17
2023-05-19T03:49:17.733Z,14.12
2023-05-19T03:50:17.720Z,14.05
2023-05-19T03:51:17.716Z,14.04
2023-05-19T03:52:17.652Z,14.01
2023-05-19T03:53:17.697Z,14.01
2023-05-19T03:54:17.677Z,14.01
2023-05-19T03:55:17.640Z,13.96
2023-05-19T03:56:17.651Z,13.54
2023-05-19T03:57:17.724Z,13.45
2023-05-19T03:58:17.615Z,13.38
2023-05-19T03:59:17.634Z,13.45
2023-05-19T04:00:17.603Z,13.36
2023-05-19T04:01:17.605Z,13.14
2023-05-19T04:02:17.606Z,13.32
2023-05-19T04:03:17.774Z,13.46
2023-05-19T04:04:17.672Z,13.53
2023-05-19T04:05:17.582Z,13.63
2023-05-19T04:06:17.604Z,13.61
2023-05-19T04:07:17.568Z,13.71
2023-05-19T04:08:17.564Z,13.78
2023-05-19T04:09:17.593Z,13.87
2023-05-19T04:10:17.573Z,13.88
2023-05-19T04:11:17.538Z,13.92
2023-05-19T04:12:17.547Z,13.82
2023-05-19T04:13:17.524Z,13.84
2023-05-19T04:14:17.513Z,13.45
2023-05-19T04:15:17.499Z,13.61
2023-05-19T04:16:17.599Z,13.52
2023-05-19T04:17:17.524Z,13.52
2023-05-19T04:18:17.516Z,13.53
2023-05-19T04:19:17.826Z,13.52
2023-05-19T04:20:17.487Z,13.36
2023-05-19T04:21:17.475Z,13.39
2023-05-19T04:22:17.511Z,13.47
2023-05-19T04:23:17.443Z,13.42
2023-05-19T04:24:17.445Z,13.49
2023-05-19T04:25:17.463Z,13.42
2023-05-19T04:26:17.421Z,13.43
2023-05-19T04:27:17.427Z,13.47
2023-05-19T04:28:17.400Z,13.42
2023-05-19T04:29:17.447Z,13.56
2023-05-19T04:30:18.583Z,13.52
2023-05-19T04:31:17.424Z,13.59
2023-05-19T04:32:17.458Z,13.71
2023-05-19T04:33:17.383Z,13.77
2023-05-19T04:34:17.383Z,13.85
2023-05-19T04:35:17.379Z,13.92
2023-05-19T04:36:17.361Z,13.77
2023-05-19T04:37:17.353Z,13.90
2023-05-19T04:38:17.378Z,13.98
2023-05-19T04:39:17.333Z,14.01
2023-05-19T04:40:17.342Z,14.01
2023-05-19T04:41:17.352Z,14.08
2023-05-19T04:42:17.309Z,14.11
2023-05-19T04:43:17.328Z,14.17
2023-05-19T04:44:17.338Z,14.24
2023-05-19T04:45:17.292Z,14.31
2023-05-19T04:46:17.329Z,14.25
2023-05-19T04:47:17.287Z,14.22
2023-05-19T04:48:17.302Z,14.33
2023-05-19T04:49:17.371Z,14.37
2023-05-19T04:50:17.373Z,14.40
2023-05-19T04:51:17.379Z,14.40
2023-05-19T04:52:17.425Z,14.32
2023-05-19T04:53:17.458Z,14.37
2023-05-19T04:54:17.501Z,14.32
2023-05-19T04:55:17.533Z,14.31
2023-05-19T04:56:17.517Z,14.36
2023-05-19T04:57:17.513Z,14.25
2023-05-19T04:58:17.569Z,14.18
2023-05-19T04:59:17.567Z,14.29
2023-05-19T05:00:17.605Z,14.40
2023-05-19T05:01:17.764Z,14.42
2023-05-19T05:02:17.708Z,14.40
2023-05-19T05:03:17.883Z,14.47
2023-05-19T05:04:17.786Z,14.53
2023-05-19T05:05:17.810Z,14.49
2023-05-19T05:06:17.804Z,14.32
2023-05-19T05:07:17.816Z,14.42
2023-05-19T05:08:17.881Z,14.36
2023-05-19T05:09:17.873Z,14.45
2023-05-19T05:10:17.897Z,14.35
2023-05-19T05:11:18.023Z,14.49
2023-05-19T05:12:18.021Z,14.53
2023-05-19T05:13:18.063Z,14.42
2023-05-19T05:14:18.068Z,14.43
2023-05-19T05:15:18.093Z,14.49
2023-05-19T05:16:18.116Z,14.33
2023-05-19T05:17:18.102Z,14.42
2023-05-19T05:18:18.099Z,14.46
2023-05-19T05:19:18.143Z,14.50
2023-05-19T05:20:18.197Z,14.33
2023-05-19T05:21:18.220Z,14.05
2023-05-19T05:22:18.238Z,14.04
2023-05-19T05:23:18.244Z,14.12
2023-05-19T05:24:18.243Z,14.02
2023-05-19T05:25:18.314Z,14.19
2023-05-19T05:26:18.360Z,14.28
2023-05-19T05:27:18.344Z,14.35
2023-05-19T05:28:18.362Z,14.40
2023-05-19T05:29:18.386Z,14.31
2023-05-19T05:30:18.394Z,14.33
2023-05-19T05:31:18.469Z,14.36
2023-05-19T05:32:18.547Z,14.46
2023-05-19T05:33:18.711Z,14.22
2023-05-19T05:34:18.559Z,14.29
2023-05-19T05:35:18.574Z,14.25
2023-05-19T05:36:18.534Z,14.33
2023-05-19T05:37:18.575Z,14.08
2023-05-19T05:38:18.649Z,14.12
2023-05-19T05:39:18.649Z,14.31
2023-05-19T05:40:18.657Z,14.37
2023-05-19T05:41:18.715Z,14.49
2023-05-19T05:42:18.770Z,14.58
2023-05-19T05:43:18.757Z,14.64
2023-05-19T05:44:18.766Z,14.56
2023-05-19T05:45:18.824Z,14.58
2023-05-19T05:46:18.892Z,14.62
2023-05-19T05:47:18.899Z,14.69
2023-05-19T05:48:18.913Z,14.74
2023-05-19T05:49:18.970Z,14.84
2023-05-19T05:50:19.023Z,14.76
2023-05-19T05:51:19.052Z,14.74
2023-05-19T05:52:19.020Z,14.82
2023-05-19T05:53:19.046Z,14.86
2023-05-19T05:54:19.104Z,14.93
2023-05-19T05:55:19.113Z,15.04
2023-05-19T05:56:19.164Z,15.08
2023-05-19T05:57:19.218Z,15.15
2023-05-19T05:58:19.226Z,15.21
2023-05-19T05:59:19.274Z,15.28
2023-05-19T06:00:19.354Z,15.29
2023-05-19T06:01:19.389Z,15.34
2023-05-19T06:02:19.440Z,15.32
2023-05-19T06:03:19.541Z,15.20
2023-05-19T06:04:19.526Z,15.21
2023-05-19T06:05:19.585Z,15.24
2023-05-19T06:06:19.548Z,15.27
2023-05-19T06:07:19.602Z,15.17
2023-05-19T06:08:19.596Z,15.17
2023-05-19T06:09:19.612Z,15.28
2023-05-19T06:10:19.616Z,15.35
2023-05-19T06:11:19.644Z,15.31
2023-05-19T06:12:19.723Z,15.39
2023-05-19T06:13:19.793Z,15.52
2023-05-19T06:14:19.848Z,15.60
2023-05-19T06:15:19.847Z,15.62
2023-05-19T06:16:19.878Z,15.62
2023-05-19T06:17:19.921Z,15.62
2023-05-19T06:18:19.982Z,15.80
2023-05-19T06:19:20.047Z,15.97
2023-05-19T06:20:20.039Z,16.14
2023-05-19T06:21:20.026Z,16.14
2023-05-19T06:22:20.066Z,16.28
2023-05-19T06:23:20.107Z,16.23
2023-05-19T06:24:20.164Z,15.90
2023-05-19T06:25:20.189Z,15.86
2023-05-19T06:26:20.214Z,15.53
2023-05-19T06:27:20.307Z,15.92
2023-05-19T06:28:20.312Z,15.98
2023-05-19T06:29:20.388Z,16.10
2023-05-19T06:30:20.407Z,16.20
2023-05-19T06:31:20.479Z,16.23
2023-05-19T06:32:20.491Z,16.29
2023-05-19T06:33:20.519Z,16.03
2023-05-19T06:34:20.559Z,15.77
2023-05-19T06:35:20.534Z,15.86
2023-05-19T06:36:20.593Z,16.07
2023-05-19T06:37:20.616Z,16.04
2023-05-19T06:38:20.595Z,16.17
2023-05-19T06:39:20.670Z,16.27
2023-05-19T06:40:20.727Z,16.07
2023-05-19T06:41:20.767Z,16.31
2023-05-19T06:42:20.856Z,16.35
2023-05-19T06:43:20.836Z,16.41
2023-05-19T06:44:21.228Z,16.34
2023-05-19T06:45:20.900Z,16.42
2023-05-19T06:46:20.996Z,16.56
2023-05-19T06:47:20.972Z,16.50
2023-05-19T06:48:20.970Z,16.69
2023-05-19T06:49:21.016Z,16.79
2023-05-19T06:50:21.038Z,17.00
2023-05-19T06:51:21.100Z,16.99
2023-05-19T06:52:21.125Z,17.18
2023-05-19T06:53:21.156Z,17.31
2023-05-19T06:54:21.154Z,17.44
2023-05-19T06:55:21.204Z,17.62
2023-05-19T06:56:21.273Z,17.71
2023-05-19T06:57:21.259Z,17.83
2023-05-19T06:58:21.298Z,17.85
2023-05-19T06:59:21.300Z,17.83
2023-05-19T07:00:23.091Z,17.78
2023-05-19T07:01:21.394Z,17.73
2023-05-19T07:02:21.381Z,17.76
2023-05-19T07:03:21.422Z,17.35
2023-05-19T07:04:21.333Z,17.58
2023-05-19T07:05:21.332Z,17.37
2023-05-19T07:06:21.333Z,16.82
2023-05-19T07:07:21.353Z,16.65
2023-05-19T07:08:21.328Z,16.89
2023-05-19T07:09:21.338Z,17.11
2023-05-19T07:10:21.275Z,17.23
2023-05-19T07:11:21.290Z,17.30
2023-05-19T07:12:21.321Z,17.45
2023-05-19T07:13:21.291Z,17.60
2023-05-19T07:14:21.262Z,17.65
2023-05-19T07:15:21.291Z,17.72
2023-05-19T07:16:21.284Z,17.58
2023-05-19T07:17:21.259Z,17.35
2023-05-19T07:18:21.269Z,17.56
2023-05-19T07:19:21.400Z,17.64
2023-05-19T07:20:21.234Z,17.73
2023-05-19T07:21:21.237Z,17.83
2023-05-19T07:22:21.216Z,17.82
2023-05-19T07:23:21.234Z,17.61
2023-05-19T07:24:21.216Z,17.69
2023-05-19T07:25:21.203Z,17.86
2023-05-19T07:26:21.184Z,18.03
2023-05-19T07:27:21.196Z,17.96
2023-05-19T07:28:21.205Z,18.14
2023-05-19T07:29:21.179Z,17.46
2023-05-19T07:30:21.186Z,17.73
2023-05-19T07:31:21.204Z,17.97
2023-05-19T07:32:21.301Z,18.17
2023-05-19T07:33:21.159Z,17.83
2023-05-19T07:34:21.152Z,17.97
2023-05-19T07:35:21.178Z,18.26
2023-05-19T07:36:21.141Z,18.36
2023-05-19T07:37:21.133Z,18.43
2023-05-19T07:38:21.137Z,18.50
2023-05-19T07:39:21.209Z,18.57
2023-05-19T07:40:21.123Z,18.58
2023-05-19T07:41:21.094Z,18.52
2023-05-19T07:42:21.119Z,18.10
2023-05-19T07:43:21.078Z,18.29
2023-05-19T07:44:21.082Z,18.47
2023-05-19T07:45:21.080Z,18.62
2023-05-19T07:46:21.129Z,18.84
2023-05-19T07:48:13.668Z,18.34
2023-05-19T07:49:13.584Z,18.47
2023-05-19T07:50:13.611Z,18.46
2023-05-19T07:51:13.585Z,18.74
2023-05-19T07:52:13.549Z,18.94
2023-05-19T07:53:13.557Z,19.07
2023-05-19T07:54:13.561Z,19.23
2023-05-19T07:55:13.549Z,19.31
2023-05-19T07:56:13.552Z,19.33
2023-05-19T07:57:13.539Z,19.47
2023-05-19T07:58:13.518Z,19.46
2023-05-19T07:59:13.534Z,19.60
2023-05-19T08:00:13.531Z,19.72
2023-05-19T08:01:13.517Z,19.86
2023-05-19T08:02:13.503Z,20.09
2023-05-19T08:03:13.800Z,20.29
2023-05-19T08:04:13.590Z,20.36
2023-05-19T08:05:13.536Z,20.09
2023-05-19T08:06:13.482Z,19.85
2023-05-19T08:07:13.439Z,19.96
2023-05-19T08:08:13.451Z,19.44
2023-05-19T08:09:13.455Z,19.12
2023-05-19T08:10:13.452Z,19.20
2023-05-19T08:11:13.440Z,19.29
2023-05-19T08:12:13.426Z,19.29
2023-05-19T08:13:13.434Z,19.35
2023-05-19T08:14:13.437Z,19.41
2023-05-19T08:15:13.381Z,19.41
2023-05-19T08:16:13.442Z,19.46
2023-05-19T08:17:13.368Z,19.54
2023-05-19T08:18:13.509Z,19.49
2023-05-19T08:19:13.499Z,19.60
2023-05-19T08:20:13.426Z,19.62
2023-05-19T08:21:13.517Z,19.75
2023-05-19T08:22:13.616Z,19.38
2023-05-19T08:23:13.590Z,19.30
2023-05-19T08:24:13.580Z,19.44
2023-05-19T08:25:13.654Z,19.74
2023-05-19T08:26:14.270Z,19.98
2023-05-19T08:27:13.705Z,20.05
2023-05-19T08:28:13.733Z,20.09
2023-05-19T08:29:13.788Z,19.86
2023-05-19T08:30:13.799Z,20.17
2023-05-19T08:31:13.868Z,20.55
2023-05-19T08:32:13.838Z,20.81
2023-05-19T08:33:13.906Z,21.05
2023-05-19T08:34:13.902Z,20.67
2023-05-19T08:35:13.910Z,21.01
2023-05-19T08:36:13.920Z,21.12
2023-05-19T08:37:13.973Z,21.05
2023-05-19T08:38:14.042Z,21.18
2023-05-19T08:39:14.066Z,21.16
2023-05-19T08:40:14.115Z,21.23
2023-05-19T08:41:14.136Z,21.26
2023-05-19T08:42:14.155Z,21.33
2023-05-19T08:43:14.217Z,21.33
2023-05-19T08:44:14.996Z,21.42
2023-05-19T08:45:14.242Z,21.43
2023-05-19T08:46:14.262Z,21.46
2023-05-19T08:47:14.305Z,21.54
2023-05-19T08:48:14.370Z,21.64
2023-05-19T08:49:14.363Z,21.76
2023-05-19T08:50:14.368Z,21.83
2023-05-19T08:51:14.416Z,21.85
2023-05-19T08:52:14.415Z,21.94
2023-05-19T08:54:15.464Z,22.01
2023-05-19T08:55:14.467Z,21.93
2023-05-19T08:56:14.450Z,21.67
2023-05-19T08:57:14.480Z,21.30
2023-05-19T08:58:14.428Z,21.29
2023-05-19T08:59:14.414Z,21.45
2023-05-19T09:00:14.434Z,21.26
2023-05-19T09:01:14.498Z,21.09
2023-05-19T09:02:14.398Z,21.36
2023-05-19T09:04:14.479Z,21.52
2023-05-19T09:05:14.414Z,21.70
2023-05-19T09:06:14.427Z,21.23
2023-05-19T09:07:14.365Z,20.70
2023-05-19T09:08:14.382Z,20.75
2023-05-19T09:09:14.334Z,20.62
2023-05-19T09:10:14.370Z,20.66
2023-05-19T09:11:14.356Z,20.81
2023-05-19T09:12:14.352Z,21.02
2023-05-19T09:13:14.359Z,21.22
2023-05-19T09:14:14.328Z,21.35
2023-05-19T09:15:14.323Z,21.52
2023-05-19T09:16:14.365Z,21.72
2023-05-19T09:17:14.300Z,21.47
2023-05-19T09:18:14.317Z,21.73
2023-05-19T09:19:14.323Z,21.95
2023-05-19T09:20:14.313Z,22.05
2023-05-19T09:21:14.307Z,21.66
2023-05-19T09:22:14.297Z,21.47
2023-05-19T09:23:14.301Z,21.52
2023-05-19T09:24:14.293Z,21.11
2023-05-19T09:25:14.234Z,21.09
2023-05-19T09:26:14.294Z,21.22
2023-05-19T09:27:14.268Z,21.30
2023-05-19T09:28:14.241Z,21.43
2023-05-19T09:29:14.290Z,21.53
2023-05-19T09:30:14.263Z,21.67
2023-05-19T09:31:14.211Z,21.81
2023-05-19T09:32:14.255Z,21.90
2023-05-19T09:33:14.309Z,22.09
2023-05-19T09:34:14.196Z,21.97
2023-05-19T09:35:14.214Z,22.16
2023-05-19T09:36:14.194Z,22.34
2023-05-19T09:37:14.184Z,22.58
2023-05-19T09:38:14.192Z,22.77
2023-05-19T09:39:14.164Z,22.91
2023-05-19T09:40:14.177Z,23.07
2023-05-19T09:41:14.195Z,23.22
2023-05-19T09:42:14.145Z,23.37
2023-05-19T09:43:14.140Z,23.45
2023-05-19T09:44:14.166Z,23.49
2023-05-19T09:45:14.141Z,23.48
2023-05-19T09:46:14.869Z,23.28
2023-05-19T09:47:14.113Z,23.22
2023-05-19T09:48:14.115Z,23.08
2023-05-19T09:49:14.150Z,23.03
2023-05-19T09:50:14.146Z,22.93
2023-05-19T09:51:14.087Z,23.11
2023-05-19T09:52:14.120Z,23.07
2023-05-19T09:53:14.112Z,23.37
2023-05-19T09:54:14.107Z,23.51
2023-05-19T09:55:14.063Z,23.70
2023-05-19T09:56:14.078Z,23.99
2023-05-19T09:57:14.078Z,24.30
2023-05-19T09:58:14.076Z,23.90
2023-05-19T09:59:14.049Z,24.42
2023-05-19T10:00:14.106Z,24.50
2023-05-19T10:01:14.156Z,24.79
2023-05-19T10:02:14.166Z,24.73
2023-05-19T10:03:14.231Z,24.96
2023-05-19T10:04:14.226Z,24.09
2023-05-19T10:05:14.386Z,24.10
2023-05-19T10:06:14.265Z,23.93
2023-05-19T10:07:14.348Z,23.38
2023-05-19T10:08:14.338Z,23.77
2023-05-19T10:09:14.380Z,23.68
2023-05-19T10:10:14.417Z,23.77
2023-05-19T10:11:14.444Z,24.18
2023-05-19T10:12:14.479Z,24.41
2023-05-19T10:13:14.496Z,24.58
2023-05-19T10:14:14.487Z,24.89
2023-05-19T10:15:14.536Z,25.14
2023-05-19T10:16:14.609Z,25.40
2023-05-19T10:17:14.572Z,25.57
2023-05-19T10:18:14.671Z,25.68
2023-05-19T10:19:14.761Z,24.87
2023-05-19T10:20:14.705Z,24.37
2023-05-19T10:21:14.741Z,24.00
2023-05-19T10:22:14.766Z,24.50
2023-05-19T10:23:14.788Z,24.42
2023-05-19T10:24:14.862Z,24.68
2023-05-19T10:25:14.867Z,24.99
2023-05-19T10:26:14.947Z,25.16
2023-05-19T10:27:14.951Z,25.38
2023-05-19T10:28:15.018Z,25.58
2023-05-19T10:29:15.029Z,25.74
2023-05-19T10:30:16.342Z,25.37
2023-05-19T10:31:15.078Z,25.37
2023-05-19T10:32:15.092Z,25.47
2023-05-19T10:33:15.123Z,25.55
2023-05-19T10:34:15.143Z,25.89
2023-05-19T10:35:15.141Z,25.30
2023-05-19T10:36:15.177Z,25.14
2023-05-19T10:37:15.200Z,24.99
2023-05-19T10:38:15.264Z,24.93
2023-05-19T10:39:15.278Z,24.87
2023-05-19T10:40:15.300Z,25.36
2023-05-19T10:41:15.305Z,25.00
2023-05-19T10:42:15.326Z,24.59
2023-05-19T10:43:15.346Z,24.69
2023-05-19T10:44:15.394Z,24.96
2023-05-19T10:45:15.396Z,25.19
2023-05-19T10:46:15.451Z,25.36
2023-05-19T10:47:15.521Z,25.52
2023-05-19T10:48:15.525Z,25.07
2023-05-19T10:49:15.538Z,24.82
2023-05-19T10:50:15.759Z,24.61
2023-05-19T10:51:15.643Z,24.93
2023-05-19T10:52:15.661Z,24.52
2023-05-19T10:53:15.702Z,24.23
2023-05-19T10:54:15.704Z,24.28
2023-05-19T10:55:15.790Z,24.52
2023-05-19T10:56:15.783Z,24.58
2023-05-19T10:57:15.846Z,24.54
2023-05-19T10:58:15.896Z,24.47
2023-05-19T10:59:15.907Z,24.21
2023-05-19T11:00:15.941Z,24.50
2023-05-19T11:01:16.040Z,24.59
2023-05-19T11:02:16.099Z,24.42
2023-05-19T11:03:16.123Z,25.17
2023-05-19T11:04:16.126Z,25.48
2023-05-19T11:05:16.103Z,25.27
2023-05-19T11:06:16.153Z,25.71
2023-05-19T11:07:16.168Z,25.65
2023-05-19T11:08:16.200Z,25.51
2023-05-19T11:09:16.213Z,25.75
2023-05-19T11:10:16.283Z,25.54
2023-05-19T11:11:16.318Z,25.30
2023-05-19T11:12:16.333Z,25.14
2023-05-19T11:13:16.359Z,25.33
2023-05-19T11:14:16.417Z,25.24
2023-05-19T11:15:16.644Z,25.51
2023-05-19T11:16:16.431Z,25.44
2023-05-19T11:17:16.479Z,25.51
2023-05-19T11:18:16.518Z,25.62
2023-05-19T11:19:16.547Z,25.97
2023-05-19T11:20:16.601Z,26.22
2023-05-19T11:21:16.693Z,26.53
2023-05-19T11:22:16.644Z,26.88
2023-05-19T11:23:16.729Z,27.15
2023-05-19T11:24:16.737Z,27.39
2023-05-19T11:25:16.739Z,27.58
2023-05-19T11:26:16.791Z,27.53
2023-05-19T11:27:16.779Z,27.46
2023-05-19T11:28:16.839Z,27.61
2023-05-19T11:29:16.858Z,27.74
2023-05-19T11:30:16.903Z,27.92
2023-05-19T11:31:16.940Z,28.01
2023-05-19T11:32:16.971Z,27.37
2023-05-19T11:33:17.001Z,27.85
2023-05-19T11:34:16.993Z,28.07
2023-05-19T11:35:17.038Z,27.95
2023-05-19T11:36:17.064Z,27.60
2023-05-19T11:37:17.079Z,27.64
2023-05-19T11:38:17.134Z,27.71
2023-05-19T11:39:17.136Z,27.75
2023-05-19T11:40:17.201Z,27.88
2023-05-19T11:41:18.906Z,28.18
2023-05-19T11:42:17.171Z,28.15
2023-05-19T11:43:17.241Z,27.13
2023-05-19T11:44:17.197Z,26.85
2023-05-19T11:45:17.157Z,27.05
2023-05-19T11:46:17.167Z,26.92
2023-05-19T11:47:17.181Z,26.99
2023-05-19T11:48:17.389Z,27.40
2023-05-19T11:49:17.150Z,26.98
2023-05-19T11:50:17.169Z,27.44
2023-05-19T11:51:17.174Z,27.43
2023-05-19T11:52:17.118Z,27.47
2023-05-19T11:53:17.108Z,27.30
2023-05-19T11:54:17.118Z,27.54
2023-05-19T11:55:17.103Z,27.71
2023-05-19T11:56:17.100Z,27.64
2023-05-19T11:57:17.205Z,27.85
2023-05-19T11:58:17.405Z,27.88
2023-05-19T11:59:17.077Z,27.64
2023-05-19T12:00:17.057Z,27.58
2023-05-19T12:01:17.087Z,27.22
2023-05-19T12:02:17.113Z,26.73
2023-05-19T12:03:17.191Z,26.79
2023-05-19T12:04:17.056Z,26.60
2023-05-19T12:05:17.134Z,26.33
2023-05-19T12:06:17.086Z,25.61
2023-05-19T12:07:17.009Z,25.69
2023-05-19T12:08:17.020Z,26.06
2023-05-19T12:09:17.039Z,26.33
2023-05-19T12:10:17.028Z,26.54
2023-05-19T12:11:18.127Z,26.64
2023-05-19T12:12:17.133Z,26.30
2023-05-19T12:13:16.999Z,26.34
2023-05-19T12:14:17.016Z,26.73
2023-05-19T12:15:16.970Z,26.60
2023-05-19T12:16:17.068Z,26.39
2023-05-19T12:17:17.001Z,26.15
2023-05-19T12:18:16.947Z,25.71
2023-05-19T12:19:16.984Z,25.71
2023-05-19T12:20:16.985Z,26.12
2023-05-19T12:21:16.957Z,26.40
2023-05-19T12:22:16.959Z,25.88
2023-05-19T12:23:16.929Z,25.78
2023-05-19T12:24:16.923Z,25.67
2023-05-19T12:25:16.937Z,25.71
2023-05-19T12:26:16.904Z,25.96
2023-05-19T12:27:16.917Z,25.36
2023-05-19T12:28:16.923Z,25.33
2023-05-19T12:29:16.890Z,25.30
2023-05-19T12:30:16.968Z,25.21
2023-05-19T12:31:17.012Z,25.51
2023-05-19T12:32:17.015Z,25.47
2023-05-19T12:33:17.036Z,25.41
2023-05-19T12:34:17.065Z,24.79
2023-05-19T12:35:17.097Z,24.69
2023-05-19T12:36:17.138Z,24.52
2023-05-19T12:37:17.168Z,25.00
2023-05-19T12:38:17.176Z,24.82
2023-05-19T12:39:18.046Z,24.89
2023-05-19T12:40:17.308Z,25.20
2023-05-19T12:41:17.301Z,25.31
2023-05-19T12:42:17.346Z,24.86
2023-05-19T12:43:17.356Z,24.62
2023-05-19T12:44:17.414Z,24.65
2023-05-19T12:45:17.454Z,24.94
2023-05-19T12:46:17.564Z,25.09
2023-05-19T12:47:17.522Z,25.33
2023-05-19T12:49:17.650Z,24.86
2023-05-19T12:50:17.679Z,25.30
2023-05-19T12:51:17.705Z,25.26
2023-05-19T12:52:17.760Z,24.94
2023-05-19T12:53:17.795Z,25.41
2023-05-19T12:54:17.855Z,25.44
2023-05-19T12:55:17.857Z,24.99
2023-05-19T12:56:17.916Z,25.48